Time;durP1;ratioP1;P1;durP2;ratioP2;P2;SDS_P1;SDS_P2;PMS_P1;PMS_P2;Temp;Humidity;BMP_temperature;BMP_pressure;BME280_temperature;BME280_humidity;BME280_pressure;Samples;Min_cycle;Max_cycle;Signal;HPM_P1;HPM_P2
2021/05/07 00:01:39;;;;;;;4.15;2.10;;;;;;;18.34;79.23;100886.06;5055186;28;20044;-73
2021/05/07 00:04:24;;;;;;;3.28;2.20;;;;;;;18.63;76.96;100872.25;5055576;28;20377;-73
2021/05/07 00:07:10;;;;;;;3.85;2.20;;;;;;;18.55;77.23;100869.13;5055244;28;20025;-74
2021/05/07 00:09:57;;;;;;;3.50;2.40;;;;;;;18.57;76.80;100873.41;5055503;28;20037;-74
2021/05/07 00:12:44;;;;;;;4.88;2.22;;;;;;;18.56;76.74;100868.19;5033242;28;20517;-74
2021/05/07 00:15:29;;;;;;;4.65;2.38;;;;;;;18.14;79.00;100862.22;5033417;28;20029;-74
2021/05/07 00:18:15;;;;;;;2.58;2.00;;;;;;;18.44;80.50;100852.84;5033376;28;20033;-74
2021/05/07 00:21:01;;;;;;;6.55;2.38;;;;;;;18.21;81.66;100850.41;5035346;28;20033;-75
2021/05/07 00:23:47;;;;;;;4.68;2.50;;;;;;;18.07;82.88;100850.16;5034814;28;20025;-74
2021/05/07 00:26:33;;;;;;;3.13;2.15;;;;;;;18.16;84.58;100841.75;5020705;28;20026;-74
2021/05/07 00:29:19;;;;;;;3.55;2.80;;;;;;;18.10;86.95;100839.41;5034176;28;20127;-74
2021/05/07 00:32:04;;;;;;;2.75;2.10;;;;;;;18.20;85.89;100844.22;5033142;28;20052;-74
2021/05/07 00:34:50;;;;;;;3.78;2.42;;;;;;;17.91;89.02;100843.81;5034081;28;20057;-75
2021/05/07 00:37:36;;;;;;;3.28;2.45;;;;;;;17.80;90.56;100840.81;5021600;28;20036;-74
2021/05/07 00:40:22;;;;;;;3.22;2.47;;;;;;;18.21;87.67;100837.13;5033093;28;20033;-74
2021/05/07 00:43:08;;;;;;;3.35;2.63;;;;;;;18.07;89.45;100828.94;5019778;28;20104;-74
2021/05/07 00:45:54;;;;;;;4.82;2.50;;;;;;;18.01;91.10;100838.03;5033944;28;20021;-74
2021/05/07 00:48:41;;;;;;;5.18;2.65;;;;;;;18.05;93.29;100833.47;5019760;28;20053;-74
2021/05/07 00:51:26;;;;;;;2.90;2.63;;;;;;;18.34;100.00;100827.69;5020134;28;20109;-74
2021/05/07 00:54:12;;;;;;;4.13;2.70;;;;;;;18.23;100.00;100836.13;5035022;28;20032;-75
2021/05/07 00:56:58;;;;;;;4.40;3.28;;;;;;;18.32;100.00;100825.06;5038839;28;20022;-74
2021/05/07 00:59:44;;;;;;;4.68;3.38;;;;;;;18.15;100.00;100825.00;5036796;28;20481;-74
2021/05/07 01:02:29;;;;;;;5.03;3.40;;;;;;;18.27;100.00;100831.53;5038587;28;20096;-75
2021/05/07 01:05:15;;;;;;;5.35;3.20;;;;;;;18.18;100.00;100832.84;5037646;28;20037;-74
2021/05/07 01:08:01;;;;;;;4.95;2.90;;;;;;;17.65;100.00;100825.59;5038459;28;20044;-74
2021/05/07 01:10:47;;;;;;;4.40;3.00;;;;;;;17.88;100.00;100813.03;5028030;28;20059;-74
2021/05/07 01:13:33;;;;;;;4.50;3.15;;;;;;;17.73;100.00;100810.22;5058772;28;20029;-74
2021/05/07 01:16:19;;;;;;;4.47;3.13;;;;;;;17.31;100.00;100802.34;5044067;28;20033;-74
2021/05/07 01:19:05;;;;;;;6.18;3.45;;;;;;;17.93;100.00;100799.56;5059118;28;20106;-75
2021/05/07 01:21:51;;;;;;;7.38;3.28;;;;;;;17.41;100.00;100798.38;5058725;28;20395;-75
2021/05/07 01:24:36;;;;;;;4.00;2.83;;;;;;;17.55;100.00;100793.34;5058138;28;20167;-74
2021/05/07 01:27:22;;;;;;;5.10;3.33;;;;;;;17.34;100.00;100785.44;5058552;28;20048;-74
2021/05/07 01:30:15;;;;;;;10.98;3.90;;;;;;;17.30;100.00;100790.03;5057326;28;20021;-74
2021/05/07 01:33:01;;;;;;;8.15;3.90;;;;;;;17.38;100.00;100789.69;5057783;28;20120;-75
2021/05/07 01:35:49;;;;;;;8.55;3.70;;;;;;;17.63;100.00;100779.75;5057167;28;20497;-73
2021/05/07 01:38:35;;;;;;;9.32;3.90;;;;;;;17.53;100.00;100789.91;5057640;28;20036;-73
2021/05/07 01:41:21;;;;;;;9.52;3.63;;;;;;;17.25;100.00;100784.09;5057702;28;20036;-74
2021/05/07 01:44:07;;;;;;;12.32;4.63;;;;;;;17.39;100.00;100781.69;5043720;28;20017;-74
2021/05/07 01:46:52;;;;;;;7.38;4.13;;;;;;;17.10;100.00;100786.53;5058148;28;20024;-74
2021/05/07 01:49:38;;;;;;;6.40;3.85;;;;;;;17.50;100.00;100789.19;5058104;28;20325;-74
2021/05/07 01:52:24;;;;;;;8.38;4.28;;;;;;;17.41;100.00;100787.78;5057836;28;20021;-74
2021/05/07 01:55:12;;;;;;;8.60;4.20;;;;;;;17.32;100.00;100787.31;5058039;28;20025;-74
2021/05/07 01:58:00;;;;;;;5.63;4.00;;;;;;;17.05;100.00;100802.63;5042386;28;20035;-74
2021/05/07 02:00:46;;;;;;;6.10;3.70;;;;;;;16.65;100.00;100797.25;5057944;28;20112;-74
2021/05/07 02:03:31;;;;;;;5.07;3.38;;;;;;;16.58;100.00;100806.38;5057515;28;20096;-74
2021/05/07 02:06:17;;;;;;;5.18;3.05;;;;;;;16.25;100.00;100802.38;5056643;28;20106;-73
2021/05/07 02:09:03;;;;;;;7.22;3.50;;;;;;;16.16;100.00;100808.00;5057275;28;20043;-75
2021/05/07 02:11:49;;;;;;;5.63;3.40;;;;;;;16.39;100.00;100813.28;5057477;28;20053;-74
2021/05/07 02:14:36;;;;;;;5.18;3.47;;;;;;;16.52;100.00;100803.09;5057376;28;20052;-74
2021/05/07 02:17:22;;;;;;;6.00;3.40;;;;;;;16.38;100.00;100797.47;5041650;28;20025;-74
2021/05/07 02:20:09;;;;;;;4.32;3.70;;;;;;;16.43;100.00;100795.56;5058148;28;20075;-75
2021/05/07 02:22:56;;;;;;;6.47;3.22;;;;;;;16.56;100.00;100802.06;5042684;28;20025;-73
2021/05/07 02:25:42;;;;;;;5.85;3.40;;;;;;;16.46;100.00;100798.06;5058560;28;20040;-74
2021/05/07 02:28:28;;;;;;;5.32;3.83;;;;;;;16.62;100.00;100792.09;5057217;28;20021;-73
2021/05/07 02:31:14;;;;;;;6.32;3.88;;;;;;;16.55;100.00;100792.41;5058063;28;20037;-73
2021/05/07 02:33:59;;;;;;;8.18;4.13;;;;;;;16.54;100.00;100798.59;5056412;28;20147;-73
2021/05/07 02:36:45;;;;;;;6.90;3.88;;;;;;;16.77;100.00;100795.88;5045212;28;20475;-73
2021/05/07 02:39:31;;;;;;;8.00;4.50;;;;;;;16.78;100.00;100797.59;5058680;28;20122;-73
2021/05/07 02:42:17;;;;;;;6.28;4.22;;;;;;;16.60;100.00;100799.22;5057300;28;20037;-75
2021/05/07 02:45:08;;;;;;;6.43;4.18;;;;;;;16.43;100.00;100801.69;5043160;28;20060;-75
2021/05/07 02:47:54;;;;;;;10.75;4.72;;;;;;;16.74;100.00;100793.34;5057224;28;20115;-74
2021/05/07 02:50:39;;;;;;;8.88;5.32;;;;;;;16.69;100.00;100790.91;5042227;28;20064;-74
2021/05/07 02:53:26;;;;;;;6.18;5.03;;;;;;;16.35;100.00;100793.16;5055378;28;20025;-75
2021/05/07 02:56:12;;;;;;;7.57;4.85;;;;;;;16.71;100.00;100790.81;5056650;28;20094;-75
2021/05/07 02:58:58;;;;;;;5.55;4.50;;;;;;;16.54;100.00;100791.53;5055491;28;20024;-75
2021/05/07 03:01:43;;;;;;;7.85;5.00;;;;;;;16.62;100.00;100781.50;5056665;28;20032;-75
2021/05/07 03:04:29;;;;;;;6.45;4.65;;;;;;;16.62;100.00;100772.69;5056584;28;20025;-75
2021/05/07 03:07:15;;;;;;;7.32;4.65;;;;;;;16.75;100.00;100782.72;5057293;28;20111;-75
2021/05/07 03:10:01;;;;;;;9.40;4.47;;;;;;;16.76;100.00;100783.59;5056309;28;20029;-75
2021/05/07 03:12:47;;;;;;;10.93;4.70;;;;;;;16.75;100.00;100788.00;5035401;28;20382;-75
2021/05/07 03:15:33;;;;;;;8.25;5.03;;;;;;;16.93;100.00;100789.91;5021026;28;20035;-75
2021/05/07 03:18:19;;;;;;;6.80;4.57;;;;;;;16.29;100.00;100782.84;5034480;28;20026;-74
2021/05/07 03:21:05;;;;;;;6.75;4.47;;;;;;;16.55;100.00;100781.84;5034373;28;20112;-75
2021/05/07 03:23:51;;;;;;;6.65;4.40;;;;;;;16.37;100.00;100774.59;5021148;28;20040;-74
2021/05/07 03:26:37;;;;;;;9.23;4.10;;;;;;;16.19;100.00;100775.34;5036464;28;20461;-74
2021/05/07 03:29:23;;;;;;;7.50;3.50;;;;;;;16.44;100.00;100787.53;5034866;28;20033;-75
2021/05/07 03:32:08;;;;;;;4.30;3.50;;;;;;;16.58;100.00;100784.31;5035067;28;20116;-74
2021/05/07 03:34:54;;;;;;;7.47;2.80;;;;;;;16.27;100.00;100782.03;5033736;28;20029;-74
2021/05/07 03:37:40;;;;;;;5.22;3.30;;;;;;;16.85;100.00;100775.25;5034004;28;20029;-74
2021/05/07 03:40:26;;;;;;;6.60;3.33;;;;;;;16.82;100.00;100778.03;5019890;28;20465;-75
2021/05/07 03:43:11;;;;;;;6.93;3.95;;;;;;;16.99;100.00;100768.44;5034194;28;20469;-75
2021/05/07 03:45:57;;;;;;;5.80;3.60;;;;;;;17.21;100.00;100769.25;5034524;28;20037;-75
2021/05/07 03:48:43;;;;;;;7.32;3.50;;;;;;;17.39;100.00;100763.13;5033724;28;20143;-74
2021/05/07 03:51:29;;;;;;;5.90;3.38;;;;;;;17.11;100.00;100764.41;5034636;28;20233;-75
2021/05/07 03:54:15;;;;;;;5.22;3.80;;;;;;;16.91;100.00;100770.56;5033686;28;20064;-74
2021/05/07 03:57:00;;;;;;;6.93;4.28;;;;;;;16.79;100.00;100767.56;5034431;28;20032;-74
2021/05/07 03:59:46;;;;;;;6.70;4.88;;;;;;;16.74;100.00;100764.25;5033473;28;20025;-74
2021/05/07 04:02:32;;;;;;;8.50;4.55;;;;;;;16.74;100.00;100774.84;5033660;28;20025;-74
2021/05/07 04:05:18;;;;;;;7.80;4.80;;;;;;;16.84;100.00;100769.09;5033953;28;20029;-73
2021/05/07 04:11:07;;;;;;;6.60;4.53;;;;;;;16.58;100.00;100765.81;5040311;28;20099;-73
2021/05/07 04:13:53;;;;;;;8.55;4.55;;;;;;;15.93;100.00;100765.78;5055108;28;20021;-73
2021/05/07 04:16:39;;;;;;;8.00;4.25;;;;;;;16.26;100.00;100771.50;5054895;28;20029;-73
2021/05/07 04:19:25;;;;;;;7.70;5.57;;;;;;;16.23;100.00;100777.78;5055841;28;20025;-74
2021/05/07 04:22:10;;;;;;;6.70;3.92;;;;;;;16.33;100.00;100783.56;5054976;28;20362;-74
2021/05/07 04:24:56;;;;;;;6.07;3.88;;;;;;;16.08;100.00;100790.75;5055669;28;20095;-74
2021/05/07 04:27:42;;;;;;;6.38;3.88;;;;;;;16.47;100.00;100798.00;5041200;28;20028;-75
2021/05/07 04:30:28;;;;;;;6.82;4.82;;;;;;;16.44;100.00;100802.56;5054076;28;20020;-74
2021/05/07 04:33:14;;;;;;;9.43;4.72;;;;;;;16.21;100.00;100802.56;5054056;28;20043;-74
2021/05/07 04:36:00;;;;;;;6.70;4.88;;;;;;;16.04;100.00;100810.28;5054773;28;20025;-75
2021/05/07 04:38:45;;;;;;;7.68;4.35;;;;;;;16.45;100.00;100809.56;5055815;28;20021;-74
2021/05/07 04:41:31;;;;;;;7.80;4.68;;;;;;;16.65;100.00;100815.78;5054456;28;20052;-74
2021/05/07 04:44:17;;;;;;;9.00;4.88;;;;;;;16.61;100.00;100823.88;5054727;28;20029;-74
2021/05/07 04:47:03;;;;;;;9.48;4.88;;;;;;;16.69;100.00;100827.09;5054525;28;20021;-74
2021/05/07 04:49:49;;;;;;;9.82;5.38;;;;;;;16.51;100.00;100823.41;5040832;28;20094;-75
2021/05/07 04:52:34;;;;;;;9.30;5.53;;;;;;;16.77;100.00;100811.75;5039728;28;20033;-75
2021/05/07 04:55:21;;;;;;;10.57;5.05;;;;;;;16.60;100.00;100804.50;5054911;28;20104;-74
2021/05/07 04:58:06;;;;;;;8.70;5.07;;;;;;;16.98;100.00;100790.56;5054452;28;20025;-75
2021/05/07 05:00:52;;;;;;;8.55;4.72;;;;;;;16.69;100.00;100804.16;5040626;28;20035;-74
2021/05/07 05:03:38;;;;;;;9.95;4.85;;;;;;;16.95;100.00;100805.69;5054894;28;20084;-75
2021/05/07 05:06:24;;;;;;;7.97;4.57;;;;;;;17.54;100.00;100796.06;5039765;28;20025;-74
2021/05/07 05:09:09;;;;;;;10.45;5.10;;;;;;;17.83;100.00;100795.59;5040428;28;20083;-74
2021/05/07 05:11:55;;;;;;;22.80;5.78;;;;;;;18.09;100.00;100801.41;5024390;28;20072;-75
2021/05/07 05:14:41;;;;;;;8.60;5.05;;;;;;;18.19;100.00;100793.91;5032818;28;20033;-75
2021/05/07 05:17:27;;;;;;;10.00;5.30;;;;;;;18.08;100.00;100796.19;5034268;28;20033;-75
2021/05/07 05:20:13;;;;;;;7.75;5.45;;;;;;;18.29;100.00;100797.84;5034320;28;20053;-75
2021/05/07 05:22:58;;;;;;;10.25;6.78;;;;;;;18.01;100.00;100803.56;5019627;28;20025;-75
2021/05/07 05:25:45;;;;;;;14.00;6.80;;;;;;;17.80;100.00;100817.81;5019633;28;20099;-75
2021/05/07 05:28:34;;;;;;;11.20;6.50;;;;;;;17.67;100.00;100815.78;5034290;28;20041;-75
2021/05/07 05:31:20;;;;;;;8.57;6.75;;;;;;;17.90;100.00;100821.78;5019286;28;20030;-75
2021/05/07 05:34:06;;;;;;;10.70;6.68;;;;;;;17.93;100.00;100826.91;5034031;28;20021;-76
2021/05/07 05:36:52;;;;;;;8.77;6.40;;;;;;;17.81;100.00;100826.63;5033753;28;20044;-76
2021/05/07 05:39:38;;;;;;;8.15;5.57;;;;;;;17.76;100.00;100826.00;5020004;28;20447;-76
2021/05/07 05:42:24;;;;;;;10.07;5.72;;;;;;;17.74;100.00;100828.69;5037184;28;20033;-75
2021/05/07 05:45:10;;;;;;;14.57;6.25;;;;;;;18.04;100.00;100835.25;5038111;28;20446;-75
2021/05/07 05:48:08;;;;;;;9.27;6.05;;;;;;;17.82;100.00;100838.94;5037810;28;20057;-75
2021/05/07 05:50:54;;;;;;;8.85;5.88;;;;;;;17.99;100.00;100845.22;5022566;28;20034;-75
2021/05/07 05:53:39;;;;;;;11.13;5.90;;;;;;;18.35;100.00;100840.00;5037196;28;20025;-76
2021/05/07 05:56:25;;;;;;;7.35;5.57;;;;;;;18.39;100.00;100845.13;5038250;28;20029;-75
2021/05/07 05:59:11;;;;;;;13.25;6.10;;;;;;;18.78;100.00;100848.47;5037347;28;20029;-75
2021/05/07 06:01:57;;;;;;;11.23;5.82;;;;;;;19.09;100.00;100846.03;5037207;28;20445;-75
2021/05/07 06:04:43;;;;;;;13.57;5.72;;;;;;;19.22;100.00;100843.63;5037394;28;20029;-75
2021/05/07 06:07:28;;;;;;;13.02;7.72;;;;;;;19.52;100.00;100841.25;5037811;28;20362;-75
2021/05/07 06:10:17;;;;;;;9.15;6.10;;;;;;;19.48;100.00;100837.88;5038479;28;20103;-75
2021/05/07 06:13:02;;;;;;;14.38;5.53;;;;;;;19.34;100.00;100828.91;5057154;28;20385;-75
2021/05/07 06:15:48;;;;;;;15.80;6.30;;;;;;;19.19;100.00;100834.03;5043216;28;20036;-75
2021/05/07 06:18:34;;;;;;;17.83;6.63;;;;;;;19.56;100.00;100825.03;5043061;28;20035;-75
2021/05/07 06:21:20;;;;;;;12.65;5.47;;;;;;;19.81;100.00;100822.78;5043389;28;20032;-75
2021/05/07 06:24:06;;;;;;;16.45;5.30;;;;;;;20.31;98.99;100815.63;5056252;28;20031;-75
2021/05/07 06:26:52;;;;;;;16.88;5.15;;;;;;;20.59;97.76;100822.91;5057309;28;20426;-75
2021/05/07 06:29:37;;;;;;;9.48;4.82;;;;;;;20.38;96.92;100818.78;5056698;28;20453;-75
2021/05/07 06:32:23;;;;;;;9.45;4.65;;;;;;;20.71;95.32;100814.22;5057564;28;20028;-75
2021/05/07 06:35:10;;;;;;;11.13;4.47;;;;;;;20.74;94.50;100816.72;5057221;28;20017;-76
2021/05/07 06:37:57;;;;;;;11.48;3.67;;;;;;;20.33;95.70;100811.06;5057999;28;20104;-75
2021/05/07 06:40:43;;;;;;;7.00;3.80;;;;;;;21.02;91.24;100811.53;5055791;28;20065;-75
2021/05/07 06:43:28;;;;;;;8.20;4.80;;;;;;;20.93;93.84;100809.41;5057502;28;20106;-75
2021/05/07 06:46:14;;;;;;;9.52;4.90;;;;;;;20.85;92.82;100809.81;5056390;28;20028;-75
2021/05/07 06:49:00;;;;;;;11.32;4.97;;;;;;;20.83;94.31;100798.41;5041468;28;20039;-74
2021/05/07 06:51:46;;;;;;;9.73;5.00;;;;;;;20.84;93.37;100797.44;5042102;28;20112;-74
2021/05/07 06:54:32;;;;;;;14.55;5.20;;;;;;;20.82;95.02;100795.81;5056513;28;20033;-74
2021/05/07 06:57:18;;;;;;;8.32;3.80;;;;;;;20.86;93.48;100797.34;5042612;28;20033;-74
2021/05/07 07:00:06;;;;;;;9.73;3.38;;;;;;;21.09;91.76;100797.75;5041482;28;20131;-75
2021/05/07 07:02:52;;;;;;;5.43;3.28;;;;;;;21.29;89.83;100799.22;5041575;28;20334;-75
2021/05/07 07:05:38;;;;;;;9.10;3.22;;;;;;;21.37;87.61;100795.16;5042086;28;20025;-76
2021/05/07 07:08:24;;;;;;;7.47;3.25;;;;;;;21.18;87.78;100799.03;5042775;28;20465;-73
2021/05/07 07:11:10;;;;;;;7.35;2.75;;;;;;;21.28;86.21;100790.38;5056341;28;20055;-75
2021/05/07 07:13:58;;;;;;;6.95;3.17;;;;;;;21.76;84.54;100784.75;5056213;28;20112;-75
2021/05/07 07:16:44;;;;;;;3.75;2.53;;;;;;;21.77;84.22;100790.91;5041482;28;20071;-75
2021/05/07 07:19:30;;;;;;;5.28;2.83;;;;;;;21.97;83.67;100786.06;5057113;28;20029;-78
2021/05/07 07:22:17;;;;;;;4.43;2.85;;;;;;;22.11;82.13;100790.53;5056269;28;20112;-75
2021/05/07 07:25:04;;;;;;;6.68;3.05;;;;;;;22.21;81.58;100784.50;5056978;28;20024;-75
2021/05/07 07:27:50;;;;;;;6.95;3.25;;;;;;;22.25;81.64;100785.16;5056480;28;20082;-76
2021/05/07 07:30:35;;;;;;;4.20;2.55;;;;;;;22.55;80.51;100792.06;5055417;28;20025;-75
2021/05/07 07:33:23;;;;;;;4.50;2.80;;;;;;;22.16;81.27;100791.09;5055728;28;20111;-75
2021/05/07 07:36:09;;;;;;;4.13;2.83;;;;;;;22.19;81.76;100797.06;5056004;28;20104;-76
2021/05/07 07:38:54;;;;;;;6.32;2.85;;;;;;;23.17;79.03;100795.88;5055246;28;20024;-74
2021/05/07 07:41:40;;;;;;;4.95;3.03;;;;;;;23.12;79.47;100798.88;5055094;28;20029;-75
2021/05/07 07:44:26;;;;;;;4.28;2.92;;;;;;;23.39;76.42;100799.69;5056161;28;20120;-75
2021/05/07 07:47:12;;;;;;;5.05;3.10;;;;;;;23.83;76.18;100793.06;5054509;28;20025;-76
2021/05/07 07:49:58;;;;;;;7.50;2.95;;;;;;;23.43;78.40;100792.34;5055374;28;20028;-76
2021/05/07 07:52:44;;;;;;;4.55;2.80;;;;;;;23.64;76.20;100793.53;5040802;28;20028;-75
2021/05/07 07:55:29;;;;;;;5.30;3.55;;;;;;;23.39;80.79;100796.19;5041170;28;20021;-76
2021/05/07 07:58:15;;;;;;;8.07;3.08;;;;;;;23.80;77.87;100785.25;5041036;28;20024;-76
2021/05/07 08:01:01;;;;;;;5.68;4.32;;;;;;;23.76;78.56;100783.75;5055287;28;20067;-75
2021/05/07 08:03:47;;;;;;;8.82;3.30;;;;;;;24.39;75.57;100787.22;5053992;28;20017;-75
2021/05/07 08:06:33;;;;;;;5.38;2.90;;;;;;;24.35;75.34;100788.41;5040899;28;20027;-73
2021/05/07 08:09:19;;;;;;;3.85;2.80;;;;;;;25.04;71.98;100786.69;5055591;28;20102;-75
2021/05/07 08:12:06;;;;;;;6.65;3.00;;;;;;;24.77;72.29;100788.78;5024937;28;20050;-75
2021/05/07 08:14:52;;;;;;;8.52;3.58;;;;;;;25.16;71.80;100784.94;5036695;28;20431;-74
2021/05/07 08:17:38;;;;;;;6.20;3.47;;;;;;;25.56;70.13;100779.06;5035047;28;20053;-75
2021/05/07 08:20:24;;;;;;;6.00;3.70;;;;;;;25.11;69.59;100787.94;5033559;28;20025;-74
2021/05/07 08:23:10;;;;;;;5.25;3.58;;;;;;;25.65;67.92;100781.03;5036264;28;20157;-74
2021/05/07 08:25:55;;;;;;;7.25;3.20;;;;;;;25.42;67.85;100776.59;5022387;28;20053;-75
2021/05/07 08:28:41;;;;;;;7.38;3.50;;;;;;;25.89;65.69;100781.78;5036653;28;20033;-75
2021/05/07 08:31:27;;;;;;;8.10;3.35;;;;;;;26.14;61.37;100773.50;5036147;28;20454;-76
2021/05/07 08:34:13;;;;;;;4.20;3.08;;;;;;;25.96;61.81;100769.59;5018989;28;20116;-76
2021/05/07 08:36:58;;;;;;;6.65;3.10;;;;;;;26.20;60.16;100774.84;5034886;28;20036;-75
2021/05/07 08:39:44;;;;;;;4.75;2.65;;;;;;;27.14;57.78;100771.38;5033458;28;20040;-75
2021/05/07 08:42:34;;;;;;;4.57;3.20;;;;;;;27.13;57.32;100764.28;5033080;28;20030;-75
2021/05/07 08:45:20;;;;;;;5.00;2.75;;;;;;;26.92;54.88;100766.94;5035089;28;20040;-75
2021/05/07 08:48:06;;;;;;;4.30;2.92;;;;;;;26.93;54.78;100762.44;5019630;28;20033;-75
2021/05/07 08:50:53;;;;;;;7.15;2.90;;;;;;;26.92;52.19;100763.38;5033945;28;20033;-75
2021/05/07 08:53:39;;;;;;;4.70;2.63;;;;;;;27.01;51.75;100754.56;5033495;28;20083;-75
2021/05/07 08:56:25;;;;;;;5.68;2.65;;;;;;;27.46;50.43;100761.41;5034192;28;20059;-75
2021/05/07 08:59:11;;;;;;;7.95;2.85;;;;;;;27.74;49.34;100752.63;5034414;28;20029;-75
2021/05/07 09:01:57;;;;;;;3.40;2.30;;;;;;;27.70;50.48;100753.91;5034823;28;20173;-76
2021/05/07 09:04:50;;;;;;;4.72;2.60;;;;;;;27.65;50.16;100748.06;5034234;28;20017;-75
2021/05/07 09:07:39;;;;;;;5.15;2.72;;;;;;;27.81;50.50;100742.19;5035224;28;20033;-76
2021/05/07 09:10:40;;;;;;;4.65;2.58;;;;;;;27.29;51.27;100741.34;5036421;28;20061;-76
2021/05/07 09:13:26;;;;;;;5.57;2.40;;;;;;;27.71;49.77;100744.81;5055110;28;20021;-75
2021/05/07 09:16:12;;;;;;;4.45;2.40;;;;;;;28.04;48.21;100736.47;5042702;28;20441;-74
2021/05/07 09:18:58;;;;;;;3.58;2.45;;;;;;;27.72;48.54;100740.31;5057653;28;20102;-75
2021/05/07 09:21:44;;;;;;;5.07;2.70;;;;;;;27.44;49.69;100741.84;5059174;28;20091;-75
2021/05/07 09:24:35;;;;;;;3.92;2.30;;;;;;;27.27;50.73;100732.56;5058285;28;20445;-76
2021/05/07 09:27:22;;;;;;;4.50;2.60;;;;;;;27.01;52.25;100736.56;5057724;28;20033;-75
2021/05/07 09:30:20;;;;;;;6.78;2.67;;;;;;;27.34;51.44;100731.03;5043597;28;20036;-75
2021/05/07 09:33:13;;;;;;;5.60;2.67;;;;;;;27.55;50.68;100733.69;5058063;28;20128;-75
2021/05/07 09:36:02;;;;;;;4.55;2.60;;;;;;;27.25;49.33;100728.28;5057676;28;20458;-76
2021/05/07 09:38:48;;;;;;;3.70;2.45;;;;;;;27.56;48.72;100724.63;5057441;28;20043;-76
2021/05/07 09:42:00;;;;;;;7.57;2.92;;;;;;;26.80;48.96;100721.44;5042538;28;20036;-75
2021/05/07 09:44:46;;;;;;;5.68;2.92;;;;;;;27.18;48.90;100719.88;5043168;28;20032;-76
2021/05/07 09:47:32;;;;;;;5.55;2.45;;;;;;;27.04;46.39;100708.56;5057633;28;20025;-75
2021/05/07 09:50:29;;;;;;;5.30;2.60;;;;;;;26.68;46.93;100714.41;5043209;28;20389;-76
2021/05/07 09:53:30;;;;;;;4.00;2.40;;;;;;;27.03;46.13;100701.47;5056618;28;20068;-76
2021/05/07 09:56:18;;;;;;;22.88;2.80;;;;;;;26.85;46.34;100703.91;5058784;28;20084;-75
2021/05/07 09:59:04;;;;;;;6.00;2.63;;;;;;;27.04;45.11;100700.50;5042410;28;20025;-76
2021/05/07 10:01:50;;;;;;;9.88;2.80;;;;;;;27.10;43.46;100697.28;5042855;28;20385;-76
2021/05/07 10:04:36;;;;;;;5.13;2.35;;;;;;;27.48;41.20;100692.13;5055878;28;20036;-75
2021/05/07 10:07:22;;;;;;;4.32;2.42;;;;;;;27.04;42.38;100690.59;5057976;28;20040;-75
2021/05/07 10:10:08;;;;;;;3.22;2.20;;;;;;;27.17;41.14;100685.03;5056519;28;20033;-75
2021/05/07 10:12:57;;;;;;;5.60;2.13;;;;;;;27.23;41.75;100688.06;5043580;28;20457;-74
2021/05/07 10:15:44;;;;;;;7.55;2.45;;;;;;;27.36;42.63;100687.81;5056162;28;20033;-75
2021/05/07 10:18:34;;;;;;;4.50;2.13;;;;;;;27.53;41.44;100684.53;5056890;28;20032;-74
2021/05/07 10:21:32;;;;;;;5.38;2.40;;;;;;;27.37;40.29;100684.16;5042966;28;20087;-75
2021/05/07 10:24:19;;;;;;;9.63;2.00;;;;;;;27.54;38.84;100678.16;5056286;28;20036;-75
2021/05/07 10:27:16;;;;;;;4.28;1.95;;;;;;;27.59;39.30;100673.22;5042114;28;20354;-75
2021/05/07 10:30:03;;;;;;;4.43;2.55;;;;;;;27.57;39.39;100674.34;5042185;28;20453;-74
2021/05/07 10:33:00;;;;;;;3.22;1.90;;;;;;;27.33;39.00;100669.28;5055751;28;20067;-74
2021/05/07 10:35:55;;;;;;;5.13;1.95;;;;;;;27.19;40.09;100669.59;5056708;28;20025;-75
2021/05/07 10:38:48;;;;;;;3.10;1.88;;;;;;;27.74;38.21;100666.47;5056665;28;20035;-74
2021/05/07 10:41:34;;;;;;;4.28;2.10;;;;;;;27.52;37.18;100666.66;5055832;28;20055;-74
2021/05/07 10:44:22;;;;;;;3.55;2.00;;;;;;;27.72;36.54;100657.66;5057244;28;20025;-75
2021/05/07 10:47:10;;;;;;;3.65;2.35;;;;;;;27.89;36.95;100653.50;5042268;28;20040;-75
2021/05/07 10:49:56;;;;;;;3.13;1.88;;;;;;;28.22;36.39;100651.31;5056381;28;20025;-74
2021/05/07 10:52:42;;;;;;;4.13;1.90;;;;;;;28.01;36.73;100653.25;5055258;28;20033;-74
2021/05/07 10:55:33;;;;;;;4.50;1.98;;;;;;;28.17;36.33;100645.50;5041982;28;20032;-75
2021/05/07 10:58:32;;;;;;;5.40;2.03;;;;;;;28.43;35.80;100643.97;5055932;28;20032;-75
2021/05/07 11:01:25;;;;;;;4.30;2.10;;;;;;;28.43;35.21;100645.78;5056384;28;20059;-75
2021/05/07 11:04:12;;;;;;;4.05;2.08;;;;;;;28.50;34.52;100645.09;5055594;28;20052;-76
2021/05/07 11:07:03;;;;;;;12.52;2.22;;;;;;;28.70;35.64;100640.53;5056416;28;20048;-75
2021/05/07 11:09:59;;;;;;;16.52;2.00;;;;;;;28.74;34.46;100641.94;5040884;28;20100;-75
2021/05/07 11:12:46;;;;;;;3.78;2.15;;;;;;;27.88;35.43;100624.88;5041714;28;20465;-75
2021/05/07 11:15:32;;;;;;;4.68;1.80;;;;;;;28.15;35.82;100620.50;5040630;28;20025;-75
2021/05/07 11:18:29;;;;;;;3.03;2.00;;;;;;;28.63;36.02;100615.13;5054641;28;20051;-75
2021/05/07 11:21:16;;;;;;;6.22;1.95;;;;;;;29.04;35.82;100612.94;5055127;28;20025;-75
2021/05/07 11:24:13;;;;;;;5.75;1.90;;;;;;;28.80;36.67;100619.81;5055713;28;20029;-75
2021/05/07 11:27:00;;;;;;;6.05;1.95;;;;;;;28.96;36.25;100606.53;5041909;28;20024;-76
2021/05/07 11:29:46;;;;;;;4.95;2.00;;;;;;;28.79;35.29;100601.91;5055307;28;20040;-75
2021/05/07 11:32:32;;;;;;;4.18;2.05;;;;;;;29.15;35.58;100609.22;5040726;28;20024;-75
2021/05/07 11:35:18;;;;;;;3.30;1.80;;;;;;;28.86;35.33;100600.34;5041278;28;20029;-76
2021/05/07 11:38:04;;;;;;;7.60;1.80;;;;;;;28.95;34.22;100597.63;5055206;28;20167;-76
2021/05/07 11:40:50;;;;;;;4.43;1.80;;;;;;;28.80;34.57;100585.59;5055099;28;20123;-75
2021/05/07 11:43:36;;;;;;;4.65;2.08;;;;;;;28.96;34.61;100576.88;5055811;28;20104;-74
2021/05/07 11:46:22;;;;;;;2.85;1.67;;;;;;;29.47;34.68;100572.72;5055087;28;20151;-75
2021/05/07 11:49:08;;;;;;;4.63;2.15;;;;;;;29.67;34.36;100574.34;5055181;28;20334;-75
2021/05/07 11:51:53;;;;;;;3.35;1.90;;;;;;;29.15;34.51;100569.59;5039388;28;20118;-75
2021/05/07 11:54:40;;;;;;;8.15;1.98;;;;;;;29.44;34.33;100570.31;5039603;28;20025;-75
2021/05/07 11:57:30;;;;;;;4.47;1.90;;;;;;;29.04;35.19;100555.44;5055955;28;20382;-75
2021/05/07 12:00:20;;;;;;;3.95;2.03;;;;;;;29.62;34.76;100555.00;5054520;28;20445;-74
2021/05/07 12:03:15;;;;;;;4.72;2.03;;;;;;;29.93;34.14;100553.66;5040540;28;20437;-75
2021/05/07 12:06:01;;;;;;;4.03;2.08;;;;;;;30.10;34.32;100551.97;5053163;28;20104;-75
2021/05/07 12:08:49;;;;;;;3.10;1.95;;;;;;;29.89;34.75;100546.03;5054336;28;20134;-75
2021/05/07 12:11:35;;;;;;;9.07;2.38;;;;;;;29.63;35.17;100543.22;5038633;28;20084;-75
2021/05/07 12:14:21;;;;;;;5.03;2.20;;;;;;;29.54;35.54;100535.97;5055276;28;20420;-75
2021/05/07 12:17:07;;;;;;;5.82;2.10;;;;;;;29.50;35.48;100531.88;5039615;28;20032;-74
2021/05/07 12:19:58;;;;;;;4.03;2.10;;;;;;;29.91;34.86;100534.06;5054697;28;20032;-75
2021/05/07 12:22:45;;;;;;;4.32;2.00;;;;;;;29.66;35.11;100521.31;5054043;28;20063;-75
2021/05/07 12:25:32;;;;;;;3.25;1.90;;;;;;;29.70;35.17;100517.28;5053389;28;20342;-75
2021/05/07 12:28:22;;;;;;;9.38;2.47;;;;;;;30.17;34.15;100510.69;5039602;28;20056;-75
2021/05/07 12:31:09;;;;;;;6.22;2.00;;;;;;;30.16;34.18;100508.13;5053473;28;20047;-75
2021/05/07 12:33:56;;;;;;;4.32;2.45;;;;;;;29.98;34.24;100507.28;5038854;28;20381;-75
2021/05/07 12:36:59;;;;;;;3.67;2.78;;;;;;;29.86;34.54;100487.72;5054157;28;20021;-75
2021/05/07 12:39:47;;;;;;;5.82;2.50;;;;;;;30.37;33.76;100487.88;5040934;28;20025;-75
2021/05/07 12:42:33;;;;;;;4.88;2.63;;;;;;;29.96;34.17;100496.63;5039331;28;20036;-75
2021/05/07 12:45:18;;;;;;;6.55;2.13;;;;;;;29.77;34.81;100483.25;5055014;28;20035;-74
2021/05/07 12:48:05;;;;;;;5.07;3.03;;;;;;;29.79;35.20;100475.88;5055219;28;20064;-74
2021/05/07 12:50:51;;;;;;;8.70;4.57;;;;;;;30.45;34.32;100469.00;5056974;28;20522;-74
2021/05/07 12:53:38;;;;;;;5.28;2.70;;;;;;;30.40;34.61;100474.03;5058173;28;20029;-74
2021/05/07 12:56:25;;;;;;;3.83;2.05;;;;;;;29.84;34.58;100473.56;5058766;28;20126;-75